createdAt,value
2019-01-03T00:00:03.543Z,1017.87
2019-01-03T00:01:03.567Z,1017.86
2019-01-03T00:02:03.599Z,1017.86
2019-01-03T00:03:03.609Z,1017.87
2019-01-03T00:04:03.630Z,1017.86
2019-01-03T00:05:03.654Z,1017.87
2019-01-03T00:06:03.674Z,1017.92
2019-01-03T00:07:03.696Z,1017.94
2019-01-03T00:08:03.717Z,1017.92
2019-01-03T00:09:03.741Z,1017.90
2019-01-03T00:10:03.761Z,1017.92
2019-01-03T00:11:03.781Z,1017.91
2019-01-03T00:12:03.803Z,1017.87
2019-01-03T00:13:03.825Z,1017.88
2019-01-03T00:14:03.846Z,1017.92
2019-01-03T00:15:03.866Z,1017.87
2019-01-03T00:16:03.891Z,1017.93
2019-01-03T00:17:03.910Z,1017.89
2019-01-03T00:18:03.934Z,1017.90
2019-01-03T00:19:04.244Z,1017.91
2019-01-03T00:20:03.974Z,1017.87
2019-01-03T00:21:03.996Z,1017.90
2019-01-03T00:22:04.019Z,1017.94
2019-01-03T00:23:04.042Z,1017.89
2019-01-03T00:24:04.061Z,1017.95
2019-01-03T00:25:04.083Z,1017.95
2019-01-03T00:26:04.105Z,1017.90
2019-01-03T00:27:04.126Z,1017.95
2019-01-03T00:28:04.163Z,1017.95
2019-01-03T00:29:04.171Z,1017.85
2019-01-03T00:30:04.190Z,1017.90
2019-01-03T00:31:04.213Z,1017.92
2019-01-03T00:32:04.232Z,1017.96
2019-01-03T00:33:04.255Z,1017.89
2019-01-03T00:34:04.276Z,1017.96
2019-01-03T00:35:04.296Z,1017.91
2019-01-03T00:36:04.319Z,1017.93
2019-01-03T00:37:04.341Z,1017.91
2019-01-03T00:38:04.361Z,1017.92
2019-01-03T00:39:04.383Z,1017.93
2019-01-03T00:40:04.403Z,1017.95
2019-01-03T00:41:04.424Z,1017.97
2019-01-03T00:42:04.447Z,1017.92
2019-01-03T00:43:04.467Z,1017.98
2019-01-03T00:44:04.491Z,1018.01
2019-01-03T00:45:04.511Z,1017.97
2019-01-03T00:46:04.534Z,1017.99
2019-01-03T00:47:04.554Z,1017.99
2019-01-03T00:48:04.576Z,1017.96
2019-01-03T00:49:04.598Z,1018.00
2019-01-03T00:50:04.619Z,1017.99
2019-01-03T00:51:04.642Z,1017.96
2019-01-03T00:52:04.663Z,1017.97
2019-01-03T00:53:04.684Z,1017.97
2019-01-03T00:54:04.707Z,1017.99
2019-01-03T00:55:04.726Z,1018.01
2019-01-03T00:56:04.748Z,1018.08
2019-01-03T00:57:04.771Z,1018.03
2019-01-03T00:58:04.793Z,1018.06
2019-01-03T00:59:04.813Z,1018.09
2019-01-03T01:00:05.349Z,1018.06
2019-01-03T01:01:04.857Z,1018.06
2019-01-03T01:02:04.881Z,1018.09
2019-01-03T01:03:04.901Z,1018.06
2019-01-03T01:04:04.924Z,1018.10
2019-01-03T01:05:04.944Z,1018.09
2019-01-03T01:06:04.966Z,1018.10
2019-01-03T01:07:04.988Z,1018.11
2019-01-03T01:08:05.009Z,1018.06
2019-01-03T01:09:05.033Z,1018.03
2019-01-03T01:10:05.054Z,1018.07
2019-01-03T01:11:05.075Z,1018.08
2019-01-03T01:12:05.096Z,1018.11
2019-01-03T01:13:05.121Z,1018.08
2019-01-03T01:14:05.140Z,1018.08
2019-01-03T01:15:05.162Z,1018.13
2019-01-03T01:16:05.184Z,1018.08
2019-01-03T01:17:05.207Z,1018.05
2019-01-03T01:18:05.228Z,1018.09
2019-01-03T01:19:05.249Z,1018.15
2019-01-03T01:20:05.271Z,1018.12
2019-01-03T01:21:05.292Z,1018.15
2019-01-03T01:22:05.314Z,1018.18
2019-01-03T01:23:05.336Z,1018.18
2019-01-03T01:24:05.359Z,1018.17
2019-01-03T01:25:05.384Z,1018.15
2019-01-03T01:26:05.403Z,1018.21
2019-01-03T01:27:05.424Z,1018.19
2019-01-03T01:28:05.448Z,1018.21
2019-01-03T01:29:05.475Z,1018.19
2019-01-03T01:30:05.492Z,1018.25
2019-01-03T01:31:05.511Z,1018.24
2019-01-03T01:32:05.536Z,1018.24
2019-01-03T01:33:05.557Z,1018.26
2019-01-03T01:34:05.578Z,1018.26
2019-01-03T01:35:05.598Z,1018.28
2019-01-03T01:36:05.620Z,1018.27
2019-01-03T01:37:05.643Z,1018.25
2019-01-03T01:38:05.665Z,1018.27
2019-01-03T01:39:05.686Z,1018.27
2019-01-03T01:40:05.711Z,1018.28
2019-01-03T01:41:05.735Z,1018.30
2019-01-03T01:42:05.753Z,1018.32
2019-01-03T01:43:05.774Z,1018.34
2019-01-03T01:44:05.795Z,1018.35
2019-01-03T01:45:05.818Z,1018.36
2019-01-03T01:46:05.967Z,1018.41
2019-01-03T01:47:05.861Z,1018.42
2019-01-03T01:48:05.883Z,1018.41
2019-01-03T01:49:05.905Z,1018.43
2019-01-03T01:50:05.927Z,1018.36
2019-01-03T01:51:05.948Z,1018.37
2019-01-03T01:52:05.970Z,1018.37
2019-01-03T01:53:05.992Z,1018.38
2019-01-03T01:54:06.015Z,1018.39
2019-01-03T01:55:06.035Z,1018.35
2019-01-03T01:56:06.070Z,1018.35
2019-01-03T01:57:06.079Z,1018.36
2019-01-03T01:58:06.101Z,1018.36
2019-01-03T01:59:06.123Z,1018.36
2019-01-03T02:00:06.145Z,1018.38
2019-01-03T02:01:06.166Z,1018.37
2019-01-03T02:02:06.190Z,1018.32
2019-01-03T02:03:06.209Z,1018.30
2019-01-03T02:04:06.231Z,1018.30
2019-01-03T02:05:06.253Z,1018.33
2019-01-03T02:06:06.276Z,1018.36
2019-01-03T02:07:06.300Z,1018.31
2019-01-03T02:08:06.322Z,1018.32
2019-01-03T02:09:06.341Z,1018.33
2019-01-03T02:10:06.364Z,1018.38
2019-01-03T02:11:06.383Z,1018.31
2019-01-03T02:12:06.406Z,1018.27
2019-01-03T02:13:06.427Z,1018.28
2019-01-03T02:14:06.448Z,1018.29
2019-01-03T02:15:06.471Z,1018.35
2019-01-03T02:16:06.491Z,1018.30
2019-01-03T02:17:06.514Z,1018.37
2019-01-03T02:18:06.535Z,1018.37
2019-01-03T02:19:06.556Z,1018.33
2019-01-03T02:20:06.576Z,1018.31
2019-01-03T02:21:06.600Z,1018.34
2019-01-03T02:22:06.623Z,1018.32
2019-01-03T02:23:06.644Z,1018.38
2019-01-03T02:24:06.662Z,1018.37
2019-01-03T02:25:06.687Z,1018.35
2019-01-03T02:26:06.707Z,1018.36
2019-01-03T02:27:06.727Z,1018.38
2019-01-03T02:28:06.750Z,1018.38
2019-01-03T02:29:06.771Z,1018.35
2019-01-03T02:30:06.795Z,1018.33
2019-01-03T02:31:06.818Z,1018.31
2019-01-03T02:32:06.836Z,1018.34
2019-01-03T02:33:06.858Z,1018.31
2019-01-03T02:34:06.882Z,1018.36
2019-01-03T02:35:06.899Z,1018.33
2019-01-03T02:36:06.921Z,1018.31
2019-01-03T02:37:06.945Z,1018.31
2019-01-03T02:38:06.980Z,1018.28
2019-01-03T02:39:06.986Z,1018.30
2019-01-03T02:40:07.006Z,1018.34
2019-01-03T02:41:07.028Z,1018.38
2019-01-03T02:42:07.052Z,1018.36
2019-01-03T02:43:07.072Z,1018.37
2019-01-03T02:44:07.094Z,1018.34
2019-01-03T02:45:07.114Z,1018.37
2019-01-03T02:46:07.136Z,1018.40
2019-01-03T02:47:07.155Z,1018.42
2019-01-03T02:48:07.178Z,1018.42
2019-01-03T02:49:07.199Z,1018.38
2019-01-03T02:50:07.228Z,1018.42
2019-01-03T02:51:07.248Z,1018.43
2019-01-03T02:52:07.279Z,1018.42
2019-01-03T02:53:07.285Z,1018.39
2019-01-03T02:54:07.305Z,1018.38
2019-01-03T02:55:07.326Z,1018.36
2019-01-03T02:56:07.348Z,1018.43
2019-01-03T02:57:07.368Z,1018.31
2019-01-03T02:58:07.389Z,1018.35
2019-01-03T02:59:07.410Z,1018.37
2019-01-03T03:00:07.432Z,1018.41
2019-01-03T03:01:07.455Z,1018.41
2019-01-03T03:02:07.475Z,1018.37
2019-01-03T03:03:07.495Z,1018.39
2019-01-03T03:04:07.516Z,1018.36
2019-01-03T03:05:07.537Z,1018.34
2019-01-03T03:06:07.560Z,1018.35
2019-01-03T03:07:07.580Z,1018.33
2019-01-03T03:08:07.602Z,1018.30
2019-01-03T03:09:07.623Z,1018.30
2019-01-03T03:10:07.643Z,1018.29
2019-01-03T03:11:07.666Z,1018.30
2019-01-03T03:12:07.686Z,1018.30
2019-01-03T03:13:07.706Z,1018.28
2019-01-03T03:14:07.727Z,1018.28
2019-01-03T03:15:07.748Z,1018.35
2019-01-03T03:16:07.768Z,1018.27
2019-01-03T03:17:07.792Z,1018.29
2019-01-03T03:18:07.812Z,1018.29
2019-01-03T03:19:07.834Z,1018.36
2019-01-03T03:20:07.860Z,1018.36
2019-01-03T03:21:07.927Z,1018.37
2019-01-03T03:22:07.897Z,1018.39
2019-01-03T03:23:07.918Z,1018.37
2019-01-03T03:24:07.941Z,1018.36
2019-01-03T03:25:07.961Z,1018.37
2019-01-03T03:26:07.985Z,1018.32
2019-01-03T03:27:08.003Z,1018.31
2019-01-03T03:28:08.022Z,1018.32
2019-01-03T03:29:08.053Z,1018.29
2019-01-03T03:30:08.074Z,1018.32
2019-01-03T03:31:08.086Z,1018.34
2019-01-03T03:32:08.108Z,1018.37
2019-01-03T03:33:08.143Z,1018.31
2019-01-03T03:34:08.150Z,1018.42
2019-01-03T03:35:08.171Z,1018.42
2019-01-03T03:36:08.192Z,1018.41
2019-01-03T03:37:08.214Z,1018.40
2019-01-03T03:38:08.240Z,1018.39
2019-01-03T03:39:08.255Z,1018.42
2019-01-03T03:40:08.275Z,1018.39
2019-01-03T03:41:08.297Z,1018.37
2019-01-03T03:42:08.319Z,1018.39
2019-01-03T03:43:08.344Z,1018.35
2019-01-03T03:44:08.359Z,1018.37
2019-01-03T03:45:08.382Z,1018.31
2019-01-03T03:46:08.402Z,1018.31
2019-01-03T03:47:08.422Z,1018.31
2019-01-03T03:48:08.444Z,1018.30
2019-01-03T03:49:08.465Z,1018.31
2019-01-03T03:50:08.501Z,1018.31
2019-01-03T03:51:08.507Z,1018.35
2019-01-03T03:52:08.527Z,1018.35
2019-01-03T03:53:08.548Z,1018.34
2019-01-03T03:54:08.571Z,1018.35
2019-01-03T03:55:08.591Z,1018.36
2019-01-03T03:56:08.613Z,1018.37
2019-01-03T03:57:08.632Z,1018.37
2019-01-03T03:58:08.653Z,1018.37
2019-01-03T03:59:08.675Z,1018.29
2019-01-03T04:00:08.694Z,1018.34
2019-01-03T04:01:08.715Z,1018.31
2019-01-03T04:02:08.752Z,1018.27
2019-01-03T04:03:08.756Z,1018.30
2019-01-03T04:04:08.777Z,1018.31
2019-01-03T04:05:08.800Z,1018.28
2019-01-03T04:06:08.821Z,1018.30
2019-01-03T04:07:08.840Z,1018.27
2019-01-03T04:08:08.862Z,1018.24
2019-01-03T04:09:08.884Z,1018.26
2019-01-03T04:10:08.903Z,1018.24
2019-01-03T04:11:08.924Z,1018.24
2019-01-03T04:12:08.949Z,1018.23
2019-01-03T04:13:08.966Z,1018.24
2019-01-03T04:14:08.988Z,1018.15
2019-01-03T04:15:09.008Z,1018.17
2019-01-03T04:16:09.028Z,1018.19
2019-01-03T04:17:09.049Z,1018.17
2019-01-03T04:18:09.070Z,1018.17
2019-01-03T04:19:09.093Z,1018.17
2019-01-03T04:20:09.115Z,1018.14
2019-01-03T04:21:09.135Z,1018.11
2019-01-03T04:22:09.154Z,1018.16
2019-01-03T04:23:09.183Z,1018.12
2019-01-03T04:24:09.195Z,1018.13
2019-01-03T04:25:09.218Z,1018.16
2019-01-03T04:26:09.241Z,1018.15
2019-01-03T04:27:09.256Z,1018.14
2019-01-03T04:28:09.820Z,1018.15
2019-01-03T04:29:09.298Z,1018.20
2019-01-03T04:30:09.321Z,1018.16
2019-01-03T04:31:09.340Z,1018.14
2019-01-03T04:32:09.362Z,1018.16
2019-01-03T04:33:09.384Z,1018.17
2019-01-03T04:34:09.403Z,1018.12
2019-01-03T04:35:09.425Z,1018.14
2019-01-03T04:36:09.444Z,1018.17
2019-01-03T04:37:09.514Z,1018.19
2019-01-03T04:38:09.487Z,1018.19
2019-01-03T04:39:09.507Z,1018.19
2019-01-03T04:40:09.529Z,1018.17
2019-01-03T04:41:09.547Z,1018.18
2019-01-03T04:42:09.568Z,1018.10
2019-01-03T04:43:09.588Z,1018.14
2019-01-03T04:44:09.610Z,1018.18
2019-01-03T04:45:09.632Z,1018.16
2019-01-03T04:46:09.656Z,1018.16
2019-01-03T04:47:09.673Z,1018.12
2019-01-03T04:48:09.694Z,1018.05
2019-01-03T04:49:09.714Z,1018.08
2019-01-03T04:50:09.734Z,1018.05
2019-01-03T04:51:09.756Z,1018.06
2019-01-03T04:52:09.777Z,1018.10
2019-01-03T04:53:09.795Z,1018.11
2019-01-03T04:54:09.816Z,1018.11
2019-01-03T04:55:09.838Z,1018.08
2019-01-03T04:56:09.858Z,1018.08
2019-01-03T04:57:09.882Z,1018.07
2019-01-03T04:58:09.900Z,1018.12
2019-01-03T04:59:09.975Z,1018.16
2019-01-03T05:00:09.941Z,1018.09
2019-01-03T05:01:09.961Z,1018.08
2019-01-03T05:02:09.986Z,1018.06
2019-01-03T05:03:10.003Z,1018.11
2019-01-03T05:04:10.027Z,1018.05
2019-01-03T05:05:10.046Z,1018.06
2019-01-03T05:06:10.065Z,1018.02
2019-01-03T05:07:10.086Z,1018.00
2019-01-03T05:08:10.106Z,1017.96
2019-01-03T05:09:10.128Z,1018.03
2019-01-03T05:10:10.153Z,1018.04
2019-01-03T05:11:10.166Z,1018.04
2019-01-03T05:12:10.190Z,1018.02
2019-01-03T05:13:10.224Z,1018.01
2019-01-03T05:14:10.289Z,1017.95
2019-01-03T05:15:10.251Z,1017.91
2019-01-03T05:16:10.275Z,1017.92
2019-01-03T05:17:10.293Z,1017.97
2019-01-03T05:18:10.314Z,1018.01
2019-01-03T05:19:10.338Z,1018.01
2019-01-03T05:20:10.355Z,1018.02
2019-01-03T05:21:10.377Z,1018.03
2019-01-03T05:22:10.396Z,1018.10
2019-01-03T05:23:10.416Z,1018.15
2019-01-03T05:24:10.437Z,1018.20
2019-01-03T05:25:10.457Z,1018.23
2019-01-03T05:26:10.480Z,1018.19
2019-01-03T05:27:10.500Z,1018.28
2019-01-03T05:28:10.524Z,1018.26
2019-01-03T05:29:10.541Z,1018.27
2019-01-03T05:30:10.567Z,1018.29
2019-01-03T05:31:10.582Z,1018.30
2019-01-03T05:32:10.603Z,1018.31
2019-01-03T05:33:10.624Z,1018.31
2019-01-03T05:34:10.645Z,1018.30
2019-01-03T05:35:10.664Z,1018.32
2019-01-03T05:36:10.686Z,1018.30
2019-01-03T05:37:10.707Z,1018.32
2019-01-03T05:38:10.727Z,1018.33
2019-01-03T05:39:10.753Z,1018.26
2019-01-03T05:40:10.768Z,1018.22
2019-01-03T05:41:10.794Z,1018.22
2019-01-03T05:42:10.811Z,1018.19
2019-01-03T05:43:10.831Z,1018.16
2019-01-03T05:44:10.853Z,1018.20
2019-01-03T05:45:10.872Z,1018.12
2019-01-03T05:46:10.891Z,1018.12
2019-01-03T05:47:10.911Z,1018.13
2019-01-03T05:48:10.933Z,1018.16
2019-01-03T05:49:10.954Z,1018.16
2019-01-03T05:50:10.975Z,1018.17
2019-01-03T05:51:10.993Z,1018.25
2019-01-03T05:52:11.017Z,1018.20
2019-01-03T05:53:11.035Z,1018.24
2019-01-03T05:54:11.055Z,1018.23
2019-01-03T05:55:11.075Z,1018.32
2019-01-03T05:56:11.098Z,1018.34
2019-01-03T05:57:11.117Z,1018.34
2019-01-03T05:58:11.138Z,1018.34
2019-01-03T05:59:11.159Z,1018.29
2019-01-03T06:00:11.179Z,1018.24
2019-01-03T06:01:11.200Z,1018.19
2019-01-03T06:02:11.221Z,1018.21
2019-01-03T06:03:11.244Z,1018.21
2019-01-03T06:04:11.266Z,1018.19
2019-01-03T06:05:11.285Z,1018.25
2019-01-03T06:06:11.354Z,1018.25
2019-01-03T06:07:11.322Z,1018.29
2019-01-03T06:08:11.344Z,1018.27
2019-01-03T06:09:11.364Z,1018.24
2019-01-03T06:10:11.385Z,1018.21
2019-01-03T06:11:11.411Z,1018.28
2019-01-03T06:12:11.428Z,1018.26
2019-01-03T06:13:11.448Z,1018.30
2019-01-03T06:14:11.473Z,1018.26
2019-01-03T06:15:11.487Z,1018.26
2019-01-03T06:16:11.507Z,1018.35
2019-01-03T06:17:11.530Z,1018.34
2019-01-03T06:18:11.551Z,1018.33
2019-01-03T06:19:11.598Z,1018.36
2019-01-03T06:20:11.590Z,1018.30
2019-01-03T06:21:11.611Z,1018.32
2019-01-03T06:22:11.631Z,1018.34
2019-01-03T06:23:11.652Z,1018.28
2019-01-03T06:24:11.674Z,1018.33
2019-01-03T06:25:11.697Z,1018.35
2019-01-03T06:26:11.713Z,1018.35
2019-01-03T06:27:11.733Z,1018.40
2019-01-03T06:28:11.754Z,1018.34
2019-01-03T06:29:11.774Z,1018.39
2019-01-03T06:30:11.797Z,1018.35
2019-01-03T06:31:11.815Z,1018.41
2019-01-03T06:32:11.837Z,1018.39
2019-01-03T06:33:11.858Z,1018.39
2019-01-03T06:34:11.881Z,1018.47
2019-01-03T06:35:11.898Z,1018.52
2019-01-03T06:36:11.920Z,1018.47
2019-01-03T06:37:11.939Z,1018.45
2019-01-03T06:38:11.961Z,1018.46
2019-01-03T06:39:11.978Z,1018.47
2019-01-03T06:40:12.000Z,1018.45
2019-01-03T06:41:12.021Z,1018.44
2019-01-03T06:42:12.042Z,1018.43
2019-01-03T06:43:12.061Z,1018.47
2019-01-03T06:44:12.081Z,1018.50
2019-01-03T06:45:12.103Z,1018.52
2019-01-03T06:46:12.122Z,1018.56
2019-01-03T06:47:12.142Z,1018.61
2019-01-03T06:48:12.164Z,1018.62
2019-01-03T06:49:12.184Z,1018.61
2019-01-03T06:50:12.205Z,1018.56
2019-01-03T06:51:12.223Z,1018.54
2019-01-03T06:52:12.244Z,1018.53
2019-01-03T06:53:12.266Z,1018.57
2019-01-03T06:54:12.286Z,1018.64
2019-01-03T06:55:12.305Z,1018.58
2019-01-03T06:56:12.326Z,1018.66
2019-01-03T06:57:12.349Z,1018.68
2019-01-03T06:58:12.418Z,1018.67
2019-01-03T06:59:12.387Z,1018.62
2019-01-03T07:00:12.411Z,1018.61
2019-01-03T07:01:12.430Z,1018.61
2019-01-03T07:02:12.450Z,1018.59
2019-01-03T07:03:12.468Z,1018.63
2019-01-03T07:04:12.489Z,1018.68
2019-01-03T07:05:12.512Z,1018.62
2019-01-03T07:06:12.533Z,1018.66
2019-01-03T07:07:12.553Z,1018.72
2019-01-03T07:08:12.576Z,1018.68
2019-01-03T07:09:12.591Z,1018.70
2019-01-03T07:10:12.614Z,1018.66
2019-01-03T07:11:12.631Z,1018.70
2019-01-03T07:12:12.652Z,1018.71
2019-01-03T07:13:12.673Z,1018.77
2019-01-03T07:14:12.692Z,1018.80
2019-01-03T07:15:12.712Z,1018.79
2019-01-03T07:16:12.734Z,1018.83
2019-01-03T07:17:12.753Z,1018.85
2019-01-03T07:18:12.776Z,1018.88
2019-01-03T07:19:12.794Z,1018.93
2019-01-03T07:20:12.815Z,1018.93
2019-01-03T07:21:12.836Z,1018.92
2019-01-03T07:22:12.857Z,1018.97
2019-01-03T07:23:12.876Z,1018.95
2019-01-03T07:24:12.897Z,1018.97
2019-01-03T07:25:12.916Z,1018.98
2019-01-03T07:26:12.937Z,1018.99
2019-01-03T07:27:12.956Z,1018.98
2019-01-03T07:28:12.978Z,1018.95
2019-01-03T07:29:12.997Z,1018.99
2019-01-03T07:30:13.017Z,1019.00
2019-01-03T07:31:13.039Z,1019.02
2019-01-03T07:32:13.062Z,1018.99
2019-01-03T07:33:13.080Z,1019.00
2019-01-03T07:34:13.101Z,1019.01
2019-01-03T07:35:13.119Z,1019.02
2019-01-03T07:36:13.143Z,1019.00
2019-01-03T07:37:13.163Z,1018.95
2019-01-03T07:38:13.181Z,1018.96
2019-01-03T07:39:13.201Z,1018.97
2019-01-03T07:40:13.224Z,1018.96
2019-01-03T07:41:13.243Z,1019.03
2019-01-03T07:42:14.060Z,1019.03
2019-01-03T07:43:13.282Z,1019.04
2019-01-03T07:44:13.353Z,1019.06
2019-01-03T07:45:13.322Z,1019.03
2019-01-03T07:46:13.344Z,1019.08
2019-01-03T07:47:13.365Z,1019.11
2019-01-03T07:48:13.389Z,1019.11
2019-01-03T07:49:13.407Z,1019.12
2019-01-03T07:50:13.431Z,1019.14
2019-01-03T07:51:13.446Z,1019.20
2019-01-03T07:52:13.467Z,1019.17
2019-01-03T07:53:13.487Z,1019.15
2019-01-03T07:54:13.510Z,1019.22
2019-01-03T07:55:13.528Z,1019.18
2019-01-03T07:56:13.550Z,1019.15
2019-01-03T07:57:13.570Z,1019.24
2019-01-03T07:58:13.591Z,1019.27
2019-01-03T07:59:13.614Z,1019.25
2019-01-03T08:00:13.631Z,1019.24
2019-01-03T08:01:13.653Z,1019.27
2019-01-03T08:02:13.673Z,1019.31
2019-01-03T08:03:13.692Z,1019.27
2019-01-03T08:04:13.713Z,1019.28
2019-01-03T08:05:13.735Z,1019.24
2019-01-03T08:06:13.755Z,1019.24
2019-01-03T08:07:14.701Z,1019.29
2019-01-03T08:08:13.796Z,1019.26
2019-01-03T08:09:13.817Z,1019.25
2019-01-03T08:10:13.838Z,1019.22
2019-01-03T08:11:13.857Z,1019.27
2019-01-03T08:12:13.928Z,1019.22
2019-01-03T08:13:13.902Z,1019.23
2019-01-03T08:14:13.919Z,1019.26
2019-01-03T08:15:13.940Z,1019.28
2019-01-03T08:16:13.961Z,1019.27
2019-01-03T08:17:13.982Z,1019.27
2019-01-03T08:18:14.003Z,1019.31
2019-01-03T08:19:14.022Z,1019.40
2019-01-03T08:20:14.043Z,1019.42
2019-01-03T08:21:14.065Z,1019.49
2019-01-03T08:22:14.090Z,1019.51
2019-01-03T08:23:14.108Z,1019.44
2019-01-03T08:24:14.127Z,1019.47
2019-01-03T08:25:14.147Z,1019.47
2019-01-03T08:26:14.170Z,1019.43
2019-01-03T08:27:14.191Z,1019.43
2019-01-03T08:28:14.214Z,1019.28
2019-01-03T08:29:14.234Z,1019.39
2019-01-03T08:30:14.257Z,1019.43
2019-01-03T08:31:14.279Z,1019.36
2019-01-03T08:32:14.302Z,1019.34
2019-01-03T08:33:14.376Z,1019.30
2019-01-03T08:34:14.348Z,1019.29
2019-01-03T08:35:14.369Z,1019.08
2019-01-03T08:36:14.393Z,1019.12
2019-01-03T08:37:14.415Z,1019.15
2019-01-03T08:38:14.439Z,1019.20
2019-01-03T08:39:14.460Z,1019.21
2019-01-03T08:40:14.485Z,1019.22
2019-01-03T08:41:14.507Z,1019.22
2019-01-03T08:42:14.531Z,1019.20
2019-01-03T08:43:14.553Z,1019.29
2019-01-03T08:44:14.577Z,1019.27
2019-01-03T08:45:14.598Z,1019.32
2019-01-03T08:46:14.622Z,1019.30
2019-01-03T08:47:14.645Z,1019.33
2019-01-03T08:48:14.666Z,1019.29
2019-01-03T08:49:14.690Z,1019.34
2019-01-03T08:50:14.714Z,1019.24
2019-01-03T08:51:14.734Z,1019.31
2019-01-03T08:52:14.757Z,1019.31
2019-01-03T08:53:14.783Z,1019.48
2019-01-03T08:54:14.803Z,1019.40
2019-01-03T08:55:14.824Z,1019.36
2019-01-03T08:56:14.849Z,1019.28
2019-01-03T08:57:14.870Z,1019.32
2019-01-03T08:58:14.893Z,1019.31
2019-01-03T08:59:14.916Z,1019.25
2019-01-03T09:00:14.938Z,1019.27
2019-01-03T09:01:14.962Z,1019.28
2019-01-03T09:02:14.986Z,1019.29
2019-01-03T09:03:15.006Z,1019.32
2019-01-03T09:04:15.029Z,1019.33
2019-01-03T09:05:15.066Z,1019.54
2019-01-03T09:06:15.075Z,1019.33
2019-01-03T09:07:15.098Z,1019.25
2019-01-03T09:08:15.120Z,1019.28
2019-01-03T09:09:15.143Z,1019.33
2019-01-03T09:10:15.165Z,1019.31
2019-01-03T09:11:15.188Z,1019.44
2019-01-03T09:12:15.211Z,1019.47
2019-01-03T09:13:15.236Z,1019.36
2019-01-03T09:14:15.258Z,1019.79
2019-01-03T09:15:15.284Z,1019.95
2019-01-03T09:16:15.303Z,1019.92
2019-01-03T09:17:15.328Z,1019.86
2019-01-03T09:18:15.353Z,1019.78
2019-01-03T09:19:15.377Z,1019.79
2019-01-03T09:20:15.402Z,1019.33
2019-01-03T09:21:15.427Z,1019.75
2019-01-03T09:22:15.450Z,1019.72
2019-01-03T09:23:15.475Z,1019.74
2019-01-03T09:24:15.501Z,1019.66
2019-01-03T09:25:15.536Z,1019.31
2019-01-03T09:26:15.553Z,1019.11
2019-01-03T09:27:15.578Z,1019.08
2019-01-03T09:28:15.607Z,1019.12
2019-01-03T09:29:15.631Z,1019.04
2019-01-03T09:30:15.658Z,1019.00
2019-01-03T09:31:15.685Z,1019.06
2019-01-03T09:32:15.710Z,1019.06
2019-01-03T09:33:15.735Z,1019.13
2019-01-03T09:34:15.763Z,1019.17
2019-01-03T09:35:15.785Z,1019.20
2019-01-03T09:36:15.814Z,1019.18
2019-01-03T09:37:15.838Z,1019.22
2019-01-03T09:38:15.865Z,1019.24
2019-01-03T09:39:15.890Z,1019.23
2019-01-03T09:40:15.915Z,1019.26
2019-01-03T09:41:15.940Z,1019.21
2019-01-03T09:42:15.966Z,1019.25
2019-01-03T09:43:15.990Z,1019.30
2019-01-03T09:44:16.017Z,1019.31
2019-01-03T09:45:16.043Z,1019.30
2019-01-03T09:46:16.066Z,1019.32
2019-01-03T09:47:16.090Z,1019.29
2019-01-03T09:48:16.117Z,1019.25
2019-01-03T09:49:16.140Z,1019.24
2019-01-03T09:50:16.166Z,1019.24
2019-01-03T09:51:16.189Z,1019.27
2019-01-03T09:52:16.213Z,1019.24
2019-01-03T09:53:16.236Z,1019.24
2019-01-03T09:54:16.263Z,1019.18
2019-01-03T09:55:16.287Z,1019.18
2019-01-03T09:56:16.312Z,1019.18
2019-01-03T09:57:16.335Z,1019.12
2019-01-03T09:58:16.359Z,1019.13
2019-01-03T09:59:16.382Z,1019.10
2019-01-03T10:00:16.407Z,1019.12
2019-01-03T10:01:16.431Z,1019.09
2019-01-03T10:02:16.506Z,1019.14
2019-01-03T10:03:16.478Z,1019.17
2019-01-03T10:04:16.503Z,1019.15
2019-01-03T10:05:16.527Z,1019.16
2019-01-03T10:06:16.551Z,1019.16
2019-01-03T10:07:16.581Z,1019.15
2019-01-03T10:08:19.629Z,1019.12
2019-01-03T10:09:16.622Z,1019.12
2019-01-03T10:10:16.645Z,1019.08
2019-01-03T10:11:16.668Z,1019.10
2019-01-03T10:12:16.693Z,1019.08
2019-01-03T10:13:16.717Z,1019.07
2019-01-03T10:14:16.740Z,1019.11
2019-01-03T10:15:16.763Z,1019.06
2019-01-03T10:16:16.787Z,1019.06
2019-01-03T10:17:16.812Z,1018.97
2019-01-03T10:18:16.835Z,1018.97
2019-01-03T10:19:16.858Z,1018.98
2019-01-03T10:20:16.882Z,1018.95
2019-01-03T10:21:16.905Z,1018.95
2019-01-03T10:22:16.929Z,1018.95
2019-01-03T10:23:16.952Z,1018.87
2019-01-03T10:24:16.981Z,1018.87
2019-01-03T10:25:16.999Z,1018.86
2019-01-03T10:26:17.027Z,1018.85
2019-01-03T10:27:17.048Z,1018.88
2019-01-03T10:28:17.070Z,1018.85
2019-01-03T10:29:17.097Z,1018.94
2019-01-03T10:30:17.118Z,1018.93
2019-01-03T10:31:17.142Z,1018.95
2019-01-03T10:32:17.166Z,1018.96
2019-01-03T10:33:17.192Z,1018.96
2019-01-03T10:34:17.214Z,1018.87
2019-01-03T10:35:17.238Z,1018.90
2019-01-03T10:36:17.269Z,1018.92
2019-01-03T10:37:17.286Z,1018.92
2019-01-03T10:38:20.990Z,1018.95
2019-01-03T10:39:17.335Z,1018.89
2019-01-03T10:40:17.357Z,1018.87
2019-01-03T10:41:17.381Z,1018.86
2019-01-03T10:42:17.548Z,1018.83
2019-01-03T10:43:17.430Z,1018.79
2019-01-03T10:44:17.453Z,1018.80
2019-01-03T10:45:17.476Z,1018.80
2019-01-03T10:46:17.502Z,1018.84
2019-01-03T10:47:17.524Z,1018.85
2019-01-03T10:48:17.549Z,1018.85
2019-01-03T10:49:17.583Z,1018.82
2019-01-03T10:50:17.597Z,1018.76
2019-01-03T10:51:17.620Z,1018.71
2019-01-03T10:52:17.648Z,1018.73
2019-01-03T10:53:17.669Z,1018.66
2019-01-03T10:54:17.693Z,1018.62
2019-01-03T10:55:17.716Z,1018.60
2019-01-03T10:56:17.741Z,1018.59
2019-01-03T10:57:17.765Z,1018.56
2019-01-03T10:58:17.790Z,1018.56
2019-01-03T10:59:17.814Z,1018.60
2019-01-03T11:00:17.837Z,1018.63
2019-01-03T11:01:17.862Z,1018.61
2019-01-03T11:02:17.888Z,1018.56
2019-01-03T11:03:17.909Z,1018.53
2019-01-03T11:04:17.932Z,1018.48
2019-01-03T11:05:17.957Z,1018.44
2019-01-03T11:06:17.981Z,1018.42
2019-01-03T11:07:18.006Z,1018.44
2019-01-03T11:08:18.028Z,1018.45
2019-01-03T11:09:18.053Z,1018.47
2019-01-03T11:10:18.077Z,1018.46
2019-01-03T11:11:18.101Z,1018.45
2019-01-03T11:12:18.126Z,1018.46
2019-01-03T11:13:18.150Z,1018.42
2019-01-03T11:14:18.173Z,1018.42
2019-01-03T11:15:18.196Z,1018.39
2019-01-03T11:16:18.221Z,1018.39
2019-01-03T11:17:18.245Z,1018.38
2019-01-03T11:18:18.270Z,1018.38
2019-01-03T11:19:18.294Z,1018.38
2019-01-03T11:20:18.316Z,1018.34
2019-01-03T11:21:18.341Z,1018.37
2019-01-03T11:22:18.366Z,1018.35
2019-01-03T11:23:18.390Z,1018.35
2019-01-03T11:24:18.416Z,1018.35
2019-01-03T11:25:18.438Z,1018.35
2019-01-03T11:26:18.463Z,1018.34
2019-01-03T11:27:18.486Z,1018.34
2019-01-03T11:28:18.510Z,1018.27
2019-01-03T11:29:18.535Z,1018.25
2019-01-03T11:30:18.560Z,1018.23
2019-01-03T11:31:18.583Z,1018.26
2019-01-03T11:32:18.608Z,1018.25
2019-01-03T11:33:18.632Z,1018.25
2019-01-03T11:34:18.656Z,1018.27
2019-01-03T11:35:18.680Z,1018.22
2019-01-03T11:36:18.705Z,1018.21
2019-01-03T11:37:18.728Z,1018.22
2019-01-03T11:38:18.754Z,1018.20
2019-01-03T11:39:18.777Z,1018.17
2019-01-03T11:40:18.803Z,1018.17
2019-01-03T11:41:18.824Z,1018.10
2019-01-03T11:42:18.850Z,1018.13
2019-01-03T11:43:18.871Z,1018.08
2019-01-03T11:44:18.900Z,1018.03
2019-01-03T11:45:18.921Z,1018.05
2019-01-03T11:46:18.946Z,1018.09
2019-01-03T11:47:18.969Z,1018.08
2019-01-03T11:48:18.992Z,1018.07
2019-01-03T11:49:19.017Z,1017.99
2019-01-03T11:50:19.049Z,1018.03
2019-01-03T11:51:19.064Z,1017.99
2019-01-03T11:52:19.090Z,1017.96
2019-01-03T11:53:19.114Z,1017.94
2019-01-03T11:54:19.137Z,1017.99
2019-01-03T11:55:19.161Z,1017.98
2019-01-03T11:56:19.185Z,1018.02
2019-01-03T11:57:19.210Z,1017.99
2019-01-03T11:58:19.237Z,1018.02
2019-01-03T11:59:19.260Z,1017.99
2019-01-03T12:00:19.281Z,1018.03
2019-01-03T12:01:19.308Z,1018.01
2019-01-03T12:02:25.442Z,1018.00
2019-01-03T12:03:19.356Z,1018.01
2019-01-03T12:04:19.380Z,1018.01
2019-01-03T12:05:19.404Z,1018.02